Time;durP1;ratioP1;P1;durP2;ratioP2;P2;SDS_P1;SDS_P2;PMS_P1;PMS_P2;Temp;Humidity;BMP_temperature;BMP_pressure;BME280_temperature;BME280_humidity;BME280_pressure;Samples;Min_cycle;Max_cycle;Signal;HPM_P1;HPM_P2
2022/02/08 00:01:16;;;;;;;9.47;2.50;;;5.20;99.90;;;;;;4974764;28;20563;-76
2022/02/08 00:03:47;;;;;;;4.60;2.23;;;5.20;99.90;;;;;;4978614;28;20470;-75
2022/02/08 00:06:34;;;;;;;9.03;2.40;;;5.20;99.90;;;;;;4976621;28;21143;-75
2022/02/08 00:09:02;;;;;;;10.67;2.53;;;5.20;99.90;;;;;;4977429;28;21373;-76
2022/02/08 00:11:35;;;;;;;8.20;2.53;;;5.10;99.90;;;;;;4971237;28;20504;-76
2022/02/08 00:14:05;;;;;;;10.13;2.10;;;5.10;99.90;;;;;;4978612;28;20564;-76
2022/02/08 00:16:37;;;;;;;8.70;2.20;;;5.10;99.90;;;;;;4977415;28;20472;-75
2022/02/08 00:19:06;;;;;;;6.50;2.20;;;5.10;99.90;;;;;;4976980;28;20537;-76
2022/02/08 00:21:35;;;;;;;4.83;2.23;;;5.00;99.90;;;;;;4975100;28;20465;-76
2022/02/08 00:24:07;;;;;;;3.83;2.33;;;5.00;99.90;;;;;;4979265;28;20924;-75
2022/02/08 00:26:35;;;;;;;6.40;2.20;;;5.00;99.90;;;;;;4980371;28;20479;-76
2022/02/08 00:29:09;;;;;;;8.37;2.80;;;5.00;99.90;;;;;;4970610;28;20490;-76
2022/02/08 00:31:37;;;;;;;4.70;2.27;;;5.00;99.90;;;;;;4977083;28;24521;-76
2022/02/08 00:34:10;;;;;;;5.00;1.73;;;5.10;99.90;;;;;;4980067;28;20861;-75
2022/02/08 00:36:38;;;;;;;5.70;2.17;;;5.00;99.90;;;;;;4977602;28;20481;-75
2022/02/08 00:39:08;;;;;;;4.07;1.93;;;5.10;99.90;;;;;;4975742;28;20488;-76
2022/02/08 00:41:39;;;;;;;5.70;2.07;;;5.10;99.90;;;;;;4975706;28;20463;-75
2022/02/08 00:44:13;;;;;;;5.57;2.30;;;5.00;99.90;;;;;;4983703;28;21011;-76
2022/02/08 00:46:50;;;;;;;8.17;2.57;;;5.00;99.90;;;;;;4975956;28;20516;-77
2022/02/08 00:49:18;;;;;;;5.20;1.90;;;5.00;99.90;;;;;;4972515;28;20994;-76
2022/02/08 00:51:53;;;;;;;7.67;2.10;;;5.00;99.90;;;;;;4975077;28;21241;-76
2022/02/08 00:54:23;;;;;;;6.40;2.20;;;5.10;99.90;;;;;;4976881;28;20472;-77
2022/02/08 00:56:52;;;;;;;7.00;2.63;;;5.10;99.90;;;;;;4976782;28;22587;-76
2022/02/08 00:59:22;;;;;;;5.93;2.40;;;5.00;99.90;;;;;;4983148;28;20503;-76
2022/02/08 01:01:52;;;;;;;6.23;2.40;;;5.00;99.90;;;;;;4976607;28;20465;-76
2022/02/08 01:04:25;;;;;;;8.33;2.90;;;5.00;99.90;;;;;;4980893;28;20499;-76
2022/02/08 01:06:56;;;;;;;6.40;2.00;;;5.00;99.90;;;;;;4981253;28;20491;-76
2022/02/08 01:09:35;;;;;;;8.97;2.40;;;5.00;99.90;;;;;;4963709;28;20493;-75
2022/02/08 01:12:03;;;;;;;8.40;2.40;;;5.00;99.90;;;;;;4963161;28;20458;-76
2022/02/08 01:14:38;;;;;;;5.37;2.60;;;5.00;99.90;;;;;;4978254;28;20455;-75
2022/02/08 01:17:07;;;;;;;8.37;2.17;;;5.00;99.90;;;;;;4981890;28;20487;-76
2022/02/08 01:19:41;;;;;;;4.53;2.60;;;5.10;99.90;;;;;;4980903;28;20477;-76
2022/02/08 01:22:10;;;;;;;5.27;2.27;;;5.10;99.90;;;;;;4980997;28;20460;-75
2022/02/08 01:24:40;;;;;;;6.50;2.70;;;5.10;99.90;;;;;;4978633;28;20538;-75
2022/02/08 01:27:10;;;;;;;7.37;2.93;;;5.10;99.90;;;;;;4980285;28;20483;-76
2022/02/08 01:29:54;;;;;;;7.37;2.63;;;5.10;99.90;;;;;;4973966;28;20498;-76
2022/02/08 01:32:50;;;;;;;7.77;2.70;;;5.10;99.90;;;;;;4978349;28;20481;-76
2022/02/08 01:35:32;;;;;;;4.70;2.90;;;5.10;99.90;;;;;;4983111;28;20529;-76
2022/02/08 01:38:05;;;;;;;6.37;2.37;;;5.00;99.90;;;;;;4978780;28;20573;-76
2022/02/08 01:40:49;;;;;;;7.23;2.93;;;5.10;99.90;;;;;;4981425;28;20508;-76
2022/02/08 01:46:11;;;;;;;6.53;2.83;;;5.10;99.90;;;;;;4950420;28;20597;-75
2022/02/08 01:48:48;;;;;;;8.00;2.80;;;5.10;99.90;;;;;;4974744;28;20548;-75
2022/02/08 01:51:19;;;;;;;8.20;3.97;;;5.10;99.90;;;;;;4985010;28;20480;-75
2022/02/08 01:53:47;;;;;;;5.83;2.73;;;5.10;99.90;;;;;;4979664;28;20470;-75
2022/02/08 01:56:15;;;;;;;7.37;2.90;;;5.10;99.90;;;;;;4979212;28;20540;-77
2022/02/08 01:58:43;;;;;;;6.23;3.20;;;5.10;99.90;;;;;;4978569;28;20481;-75
2022/02/08 02:01:18;;;;;;;9.40;3.43;;;5.10;99.90;;;;;;4976485;28;20447;-75
2022/02/08 02:03:48;;;;;;;9.60;3.40;;;5.10;99.90;;;;;;4981332;28;20462;-75
2022/02/08 02:06:36;;;;;;;9.20;3.60;;;5.10;99.90;;;;;;4978937;28;20572;-75
2022/02/08 02:09:05;;;;;;;7.77;3.47;;;5.00;99.90;;;;;;4975949;28;20507;-77
2022/02/08 02:11:34;;;;;;;12.07;4.30;;;5.10;99.90;;;;;;4972240;28;20525;-76
2022/02/08 02:14:02;;;;;;;7.97;3.80;;;5.00;99.90;;;;;;4977325;28;20540;-75
2022/02/08 02:16:42;;;;;;;5.53;3.80;;;5.00;99.90;;;;;;4979715;28;20475;-76
2022/02/08 02:19:10;;;;;;;11.57;4.60;;;5.00;99.90;;;;;;4979885;28;20486;-74
2022/02/08 02:21:39;;;;;;;6.20;3.60;;;5.00;99.90;;;;;;4977836;28;20476;-75
2022/02/08 02:24:09;;;;;;;6.67;3.43;;;5.00;99.90;;;;;;4980431;28;20541;-75
2022/02/08 02:26:37;;;;;;;10.03;4.40;;;4.90;99.90;;;;;;4980774;28;20577;-75
2022/02/08 02:29:06;;;;;;;7.13;4.30;;;4.90;99.90;;;;;;4979512;28;20489;-75
2022/02/08 02:31:35;;;;;;;11.50;4.83;;;4.90;99.90;;;;;;4971290;28;20518;-75
2022/02/08 02:34:04;;;;;;;10.20;4.40;;;4.80;99.90;;;;;;4969265;28;20466;-76
2022/02/08 02:36:32;;;;;;;10.40;5.20;;;4.80;99.90;;;;;;4968452;28;20488;-76
2022/02/08 02:39:01;;;;;;;8.63;4.90;;;4.80;99.90;;;;;;4979381;28;21212;-75
2022/02/08 02:41:38;;;;;;;7.90;4.90;;;4.80;99.90;;;;;;4980948;28;20458;-75
2022/02/08 02:44:07;;;;;;;8.50;4.83;;;4.80;99.90;;;;;;4994000;28;20446;-75
2022/02/08 02:46:35;;;;;;;10.20;5.47;;;4.90;99.90;;;;;;4972159;28;20490;-75
2022/02/08 02:49:07;;;;;;;10.93;6.50;;;4.80;99.90;;;;;;4975336;28;20469;-75
2022/02/08 02:51:39;;;;;;;13.07;6.60;;;4.80;99.90;;;;;;4978372;28;20494;-75
2022/02/08 02:54:14;;;;;;;11.80;6.53;;;4.80;99.90;;;;;;4979957;28;20469;-75
2022/02/08 02:56:44;;;;;;;12.73;7.53;;;4.80;99.90;;;;;;4976684;28;20492;-75
2022/02/08 02:59:17;;;;;;;14.27;7.90;;;4.80;99.90;;;;;;4980059;28;20900;-76
2022/02/08 03:02:16;;;;;;;13.50;6.67;;;4.80;99.90;;;;;;4977655;28;20500;-75
2022/02/08 03:04:59;;;;;;;11.13;8.60;;;4.90;99.90;;;;;;4980746;28;20474;-76
2022/02/08 03:18:40;;;;;;;12.50;8.87;;;5.00;99.90;;;;;;4976631;28;20481;-75
2022/02/08 03:21:10;;;;;;;11.20;7.50;;;5.00;99.90;;;;;;4979456;28;21072;-75
2022/02/08 03:23:41;;;;;;;18.63;9.63;;;5.10;99.90;;;;;;4978408;28;20467;-75
2022/02/08 03:26:12;;;;;;;10.67;8.50;;;5.10;99.90;;;;;;4991302;28;20454;-76
2022/02/08 03:28:42;;;;;;;16.80;9.50;;;5.10;99.90;;;;;;4971189;28;20483;-76
2022/02/08 03:31:16;;;;;;;13.80;10.40;;;5.10;99.90;;;;;;4976878;28;20483;-75
2022/02/08 03:33:46;;;;;;;15.73;10.67;;;5.20;99.90;;;;;;4979163;28;20554;-75
2022/02/08 03:36:17;;;;;;;12.20;9.30;;;5.20;99.90;;;;;;4979273;28;20481;-76
2022/02/08 03:38:48;;;;;;;14.27;10.13;;;5.20;99.90;;;;;;4974165;28;20527;-76
2022/02/08 03:41:16;;;;;;;17.70;10.10;;;5.20;99.90;;;;;;4979773;28;20541;-75
2022/02/08 03:43:53;;;;;;;16.63;11.10;;;5.30;99.90;;;;;;4979195;28;20517;-76
2022/02/08 03:46:29;;;;;;;17.00;11.13;;;5.30;99.90;;;;;;4976296;28;20484;-75
2022/02/08 03:48:59;;;;;;;17.90;10.77;;;5.30;99.90;;;;;;4963305;28;20497;-75
2022/02/08 03:51:37;;;;;;;17.70;10.30;;;5.40;99.90;;;;;;4990718;28;20487;-75
2022/02/08 03:54:06;;;;;;;14.10;10.57;;;5.40;99.90;;;;;;4977379;28;20473;-77
2022/02/08 03:56:35;;;;;;;13.87;10.60;;;5.40;99.90;;;;;;4993010;28;20492;-75
2022/02/08 03:59:05;;;;;;;17.87;10.80;;;5.40;99.90;;;;;;4975626;28;20485;-76
2022/02/08 04:04:33;;;;;;;15.50;12.53;;;5.50;99.90;;;;;;4970239;28;20491;-76
2022/02/08 04:07:08;;;;;;;13.30;10.87;;;5.50;99.90;;;;;;4960754;28;21029;-75
2022/02/08 04:09:38;;;;;;;14.77;11.60;;;5.50;99.90;;;;;;4971641;28;20563;-74
2022/02/08 04:12:14;;;;;;;19.60;12.40;;;5.60;99.90;;;;;;4977938;28;20475;-76
2022/02/08 04:14:50;;;;;;;18.17;11.87;;;5.60;99.90;;;;;;4979198;28;20488;-77
2022/02/08 04:17:40;;;;;;;17.47;12.50;;;5.60;99.90;;;;;;4965495;28;20482;-78
2022/02/08 04:31:41;;;;;;;18.30;13.87;;;5.80;99.90;;;;;;4980414;28;20481;-75
2022/02/08 04:34:25;;;;;;;18.93;13.07;;;5.80;99.90;;;;;;4979025;28;20463;-74
2022/02/08 04:37:29;;;;;;;19.60;12.50;;;5.80;99.90;;;;;;4974384;28;20477;-75
2022/02/08 04:40:12;;;;;;;23.70;14.60;;;5.80;99.90;;;;;;4977887;28;20481;-75
2022/02/08 04:42:47;;;;;;;24.53;14.43;;;5.90;99.90;;;;;;4982791;28;20459;-76
2022/02/08 04:45:27;;;;;;;18.33;14.23;;;5.90;99.90;;;;;;4984164;28;20475;-76
2022/02/08 04:48:05;;;;;;;19.97;15.33;;;5.90;99.90;;;;;;4978537;28;21936;-78
2022/02/08 04:50:35;;;;;;;21.23;13.70;;;5.90;99.90;;;;;;4977241;28;20494;-74
2022/02/08 04:53:12;;;;;;;19.43;14.27;;;5.90;99.90;;;;;;4978340;28;20462;-75
2022/02/08 04:55:48;;;;;;;24.43;15.13;;;5.90;99.90;;;;;;4968911;28;20997;-76
2022/02/08 04:58:30;;;;;;;18.93;14.23;;;6.00;99.90;;;;;;4982654;28;20562;-74
2022/02/08 05:01:07;;;;;;;17.00;13.63;;;6.00;99.90;;;;;;4983369;28;21156;-75
2022/02/08 05:35:00;;;;;;;22.43;14.20;;;6.40;99.90;;;;;;4959978;28;20473;-75
2022/02/08 05:43:10;;;;;;;18.73;15.27;;;6.40;99.90;;;;;;4976019;28;20574;-74
2022/02/08 05:46:00;;;;;;;17.93;14.07;;;6.40;99.90;;;;;;4981239;28;20469;-75
2022/02/08 05:48:30;;;;;;;21.77;14.47;;;6.50;99.90;;;;;;4995251;28;20554;-75
2022/02/08 05:51:01;;;;;;;18.73;14.53;;;6.50;99.90;;;;;;4976445;28;20623;-75
2022/02/08 05:53:42;;;;;;;21.97;15.13;;;6.50;99.90;;;;;;4971325;28;20511;-76
2022/02/08 05:56:10;;;;;;;20.57;15.00;;;6.60;99.90;;;;;;4966597;28;20990;-76
2022/02/08 05:58:46;;;;;;;19.50;14.40;;;6.60;99.90;;;;;;4998307;28;20575;-76
2022/02/08 06:01:14;;;;;;;23.90;15.50;;;6.60;99.90;;;;;;4978885;28;20554;-75
2022/02/08 06:03:44;;;;;;;21.63;15.53;;;6.60;99.90;;;;;;4978117;28;20462;-74
2022/02/08 06:06:12;;;;;;;18.10;15.10;;;6.60;99.90;;;;;;4967382;28;20574;-74
2022/02/08 06:08:42;;;;;;;22.37;16.17;;;6.60;99.90;;;;;;4979343;28;20461;-74
2022/02/08 06:11:15;;;;;;;23.53;16.70;;;6.60;99.90;;;;;;4959997;28;20532;-72
2022/02/08 06:13:43;;;;;;;19.53;15.63;;;6.60;99.90;;;;;;4960675;28;20485;-73
2022/02/08 06:16:17;;;;;;;21.67;15.00;;;6.60;99.90;;;;;;4968540;28;20489;-76
2022/02/08 06:18:45;;;;;;;24.47;17.07;;;6.70;99.90;;;;;;4975795;28;20489;-74
2022/02/08 06:21:14;;;;;;;19.70;15.40;;;6.80;99.90;;;;;;4957373;28;20476;-74
2022/02/08 06:23:43;;;;;;;24.43;16.47;;;6.80;99.90;;;;;;4956700;28;20471;-74
2022/02/08 06:26:12;;;;;;;19.53;16.10;;;6.80;99.90;;;;;;4958787;28;20462;-75
2022/02/08 06:28:40;;;;;;;23.97;16.93;;;6.90;99.90;;;;;;4945479;28;20596;-75
2022/02/08 06:31:09;;;;;;;28.63;17.00;;;6.90;99.90;;;;;;4954759;28;20634;-76
2022/02/08 06:33:37;;;;;;;23.93;16.10;;;6.90;99.90;;;;;;4968873;28;20461;-75
2022/02/08 06:36:06;;;;;;;24.30;16.70;;;6.90;99.90;;;;;;4982309;28;21194;-74
2022/02/08 06:38:33;;;;;;;28.90;17.63;;;6.90;99.90;;;;;;4959532;28;20463;-75
2022/02/08 06:41:03;;;;;;;19.27;15.93;;;6.90;99.90;;;;;;4972963;28;20496;-75
2022/02/08 06:43:31;;;;;;;21.17;15.93;;;6.90;99.90;;;;;;4977552;28;20471;-75
2022/02/08 06:46:00;;;;;;;25.60;17.93;;;6.90;99.90;;;;;;4972513;28;20547;-75
2022/02/08 06:48:28;;;;;;;23.57;16.33;;;7.00;99.90;;;;;;4976317;28;20482;-74
2022/02/08 06:50:56;;;;;;;21.20;15.50;;;7.00;99.90;;;;;;4977089;28;20470;-75
2022/02/08 06:53:25;;;;;;;20.73;15.67;;;7.00;99.90;;;;;;4978910;28;20476;-75
2022/02/08 06:55:53;;;;;;;26.07;17.30;;;7.00;99.90;;;;;;4961459;28;20505;-75
2022/02/08 06:58:29;;;;;;;26.53;16.57;;;7.10;99.90;;;;;;4956628;28;20878;-75
2022/02/08 07:01:02;;;;;;;25.83;16.60;;;7.10;99.90;;;;;;4977164;28;20469;-76
2022/02/08 07:03:31;;;;;;;26.80;16.90;;;7.10;99.90;;;;;;4959933;28;20466;-74
2022/02/08 07:06:06;;;;;;;23.60;16.37;;;7.20;99.90;;;;;;4961717;28;20480;-76
2022/02/08 07:08:34;;;;;;;28.07;17.40;;;7.20;99.90;;;;;;4974968;28;20535;-75
2022/02/08 07:11:04;;;;;;;21.40;16.00;;;7.20;99.90;;;;;;4976482;28;21026;-75
2022/02/08 07:13:33;;;;;;;23.97;15.10;;;7.20;99.90;;;;;;4973876;28;20636;-76
2022/02/08 07:16:01;;;;;;;29.70;18.07;;;7.30;99.90;;;;;;4979860;28;20466;-76
2022/02/08 07:18:29;;;;;;;23.70;17.17;;;7.30;99.90;;;;;;4981045;28;20481;-75
2022/02/08 07:20:57;;;;;;;28.30;16.73;;;7.30;99.90;;;;;;4968121;28;20469;-74
2022/02/08 07:23:25;;;;;;;27.73;18.30;;;7.30;99.90;;;;;;4976082;28;20528;-75
2022/02/08 07:25:54;;;;;;;26.03;16.97;;;7.30;99.90;;;;;;4968166;28;20516;-77
2022/02/08 07:28:23;;;;;;;24.53;16.50;;;7.30;99.90;;;;;;4979028;28;20579;-76
2022/02/08 07:30:59;;;;;;;24.07;16.30;;;7.30;99.90;;;;;;4978306;28;20475;-76
2022/02/08 07:33:28;;;;;;;29.80;18.60;;;7.40;99.90;;;;;;4968420;28;20474;-75
2022/02/08 07:36:03;;;;;;;26.90;16.77;;;7.40;99.90;;;;;;4979562;28;20617;-76
2022/02/08 07:38:36;;;;;;;25.27;16.63;;;7.40;99.90;;;;;;4976797;28;20476;-75
2022/02/08 07:43:51;;;;;;;21.00;15.70;;;7.40;99.90;;;;;;4979215;28;20516;-75
2022/02/08 07:46:20;;;;;;;20.30;15.37;;;7.40;99.90;;;;;;4974138;28;20474;-75
2022/02/08 07:48:48;;;;;;;20.27;14.83;;;7.50;99.90;;;;;;4973476;28;20490;-75
2022/02/08 07:51:19;;;;;;;22.33;15.90;;;7.50;99.90;;;;;;4976264;28;20472;-75
2022/02/08 07:53:47;;;;;;;22.53;16.07;;;7.50;99.90;;;;;;4977161;28;20478;-76
2022/02/08 07:56:16;;;;;;;27.37;16.73;;;7.50;99.90;;;;;;4963689;28;20589;-75
2022/02/08 07:58:47;;;;;;;21.60;15.67;;;7.50;99.90;;;;;;4975594;28;20493;-76
2022/02/08 08:01:16;;;;;;;26.43;15.93;;;7.50;99.90;;;;;;4980244;28;20466;-75
2022/02/08 08:03:45;;;;;;;22.43;14.67;;;7.50;99.90;;;;;;4963390;28;20495;-76
2022/02/08 08:06:16;;;;;;;20.60;15.30;;;7.50;99.90;;;;;;4974434;28;20513;-77
2022/02/08 08:08:46;;;;;;;24.60;15.60;;;7.60;99.90;;;;;;4980548;28;20485;-77
2022/02/08 08:11:17;;;;;;;25.87;16.50;;;7.60;99.90;;;;;;4980213;28;20518;-75
2022/02/08 08:13:53;;;;;;;23.50;14.97;;;7.60;99.90;;;;;;4971724;28;20471;-74
2022/02/08 08:16:37;;;;;;;26.53;16.20;;;7.60;99.90;;;;;;4979732;28;20490;-73
2022/02/08 08:19:19;;;;;;;22.10;13.90;;;7.70;99.90;;;;;;4982201;28;20518;-73
2022/02/08 08:21:50;;;;;;;24.37;15.53;;;7.70;99.90;;;;;;4977014;28;20464;-74
2022/02/08 08:24:22;;;;;;;22.57;16.20;;;7.70;99.90;;;;;;4977799;28;20458;-73
2022/02/08 08:26:50;;;;;;;23.43;15.33;;;7.80;99.90;;;;;;4980902;28;20483;-74
2022/02/08 08:29:20;;;;;;;21.03;14.30;;;7.80;99.90;;;;;;4975415;28;20524;-74
2022/02/08 08:31:48;;;;;;;18.47;14.27;;;7.80;99.90;;;;;;4974253;28;20460;-74
2022/02/08 08:34:17;;;;;;;19.90;13.90;;;7.80;99.90;;;;;;4971552;28;20477;-74
2022/02/08 08:36:47;;;;;;;19.23;13.80;;;7.80;99.90;;;;;;4967490;28;20499;-75
2022/02/08 08:39:15;;;;;;;21.30;13.90;;;7.80;99.90;;;;;;4976022;28;20867;-73
2022/02/08 08:41:48;;;;;;;19.53;14.10;;;7.90;99.90;;;;;;4976737;28;20465;-74
2022/02/08 08:50:12;;;;;;;18.57;13.03;;;8.00;99.90;;;;;;4934165;29;20493;-75
2022/02/08 08:52:43;;;;;;;19.73;13.10;;;8.00;99.90;;;;;;4962210;28;20466;-74
2022/02/08 08:55:13;;;;;;;19.57;12.70;;;8.00;99.90;;;;;;4978249;28;20472;-74
2022/02/08 08:57:41;;;;;;;17.27;12.03;;;8.00;99.90;;;;;;4976835;28;20496;-74
2022/02/08 09:00:11;;;;;;;20.77;12.33;;;8.00;99.90;;;;;;4979753;28;20482;-73
2022/02/08 09:02:41;;;;;;;17.20;11.93;;;8.10;99.90;;;;;;4980217;28;20469;-74
2022/02/08 09:05:14;;;;;;;15.07;11.43;;;8.10;99.90;;;;;;4975753;28;20466;-73
2022/02/08 09:07:43;;;;;;;17.57;11.27;;;8.10;99.90;;;;;;4977619;28;20475;-74
2022/02/08 09:10:16;;;;;;;19.23;12.43;;;8.10;99.90;;;;;;4976586;28;20519;-74
2022/02/08 09:13:03;;;;;;;12.27;10.20;;;8.20;99.90;;;;;;4977641;28;20470;-74
2022/02/08 09:15:46;;;;;;;14.00;10.03;;;8.20;99.90;;;;;;4957947;28;20517;-74
2022/02/08 09:18:40;;;;;;;12.30;10.33;;;8.20;99.90;;;;;;4964569;28;20595;-75
2022/02/08 09:21:30;;;;;;;12.70;9.30;;;8.20;99.90;;;;;;4975314;28;20463;-74
2022/02/08 09:27:22;;;;;;;13.90;10.17;;;8.30;99.90;;;;;;4934129;28;20750;-74
2022/02/08 09:30:02;;;;;;;11.10;9.33;;;8.30;99.90;;;;;;4974728;28;20491;-76
2022/02/08 09:32:41;;;;;;;14.80;9.03;;;8.40;99.90;;;;;;4979249;28;20492;-75
2022/02/08 09:35:11;;;;;;;14.53;8.90;;;8.40;99.90;;;;;;4980966;28;20536;-75
2022/02/08 09:37:43;;;;;;;9.27;8.37;;;8.40;99.90;;;;;;4976957;28;20506;-76
2022/02/08 09:40:13;;;;;;;9.80;8.80;;;8.50;99.90;;;;;;4976740;28;20529;-76
2022/02/08 09:42:42;;;;;;;9.67;8.60;;;8.50;99.90;;;;;;4977277;28;20473;-76
2022/02/08 09:45:16;;;;;;;9.57;7.70;;;8.50;99.90;;;;;;4977574;28;20496;-75
2022/02/08 09:47:51;;;;;;;9.10;7.53;;;8.60;99.90;;;;;;4967958;28;21024;-76
2022/02/08 09:50:26;;;;;;;10.27;7.60;;;8.60;99.90;;;;;;4970080;28;20556;-76
2022/02/08 09:53:00;;;;;;;9.90;7.53;;;8.60;99.90;;;;;;4964006;28;21604;-75
2022/02/08 09:55:29;;;;;;;10.80;7.57;;;8.50;99.90;;;;;;4985119;28;20446;-75
2022/02/08 09:57:58;;;;;;;10.17;7.10;;;8.60;99.90;;;;;;4979092;28;20486;-76
2022/02/08 10:00:32;;;;;;;10.00;7.70;;;8.60;99.90;;;;;;4969593;28;20481;-75
2022/02/08 10:03:07;;;;;;;9.73;7.73;;;8.50;99.90;;;;;;4978562;28;20473;-76
2022/02/08 10:05:43;;;;;;;8.70;7.77;;;8.60;99.90;;;;;;4977937;28;20464;-75
2022/02/08 10:08:13;;;;;;;8.10;7.30;;;8.60;99.90;;;;;;4973057;28;20575;-74
2022/02/08 10:10:42;;;;;;;9.60;7.10;;;8.60;99.90;;;;;;4979136;28;20501;-75
2022/02/08 10:13:32;;;;;;;10.80;7.70;;;8.60;99.90;;;;;;4979906;28;20465;-75
2022/02/08 10:19:04;;;;;;;7.60;6.73;;;8.70;99.90;;;;;;4977668;28;20896;-76
2022/02/08 10:21:43;;;;;;;8.80;6.40;;;8.70;99.90;;;;;;4982070;28;20831;-76
2022/02/08 10:24:14;;;;;;;12.63;6.53;;;8.70;99.90;;;;;;4975266;28;20455;-75
2022/02/08 10:26:54;;;;;;;8.27;6.10;;;8.70;99.90;;;;;;4979054;28;21071;-75
2022/02/08 10:29:34;;;;;;;7.10;6.40;;;8.70;99.90;;;;;;4977735;28;20598;-76
2022/02/08 10:37:46;;;;;;;9.23;5.93;;;8.60;99.90;;;;;;4952114;28;20498;-75
2022/02/08 10:40:17;;;;;;;10.43;6.30;;;8.60;99.90;;;;;;4974132;28;21162;-76
2022/02/08 10:42:51;;;;;;;8.37;6.17;;;8.70;99.90;;;;;;4977541;28;20478;-74
2022/02/08 10:45:22;;;;;;;12.07;5.80;;;8.60;99.90;;;;;;4978658;28;20916;-76
2022/02/08 10:47:56;;;;;;;7.83;5.63;;;8.70;99.90;;;;;;4975303;28;21076;-75
2022/02/08 10:50:25;;;;;;;6.50;5.60;;;8.70;99.90;;;;;;4978280;28;20497;-75
2022/02/08 10:52:55;;;;;;;7.57;5.50;;;8.70;99.90;;;;;;4975672;28;20487;-76
2022/02/08 10:55:32;;;;;;;7.57;5.17;;;8.80;99.90;;;;;;4975901;28;20584;-75
2022/02/08 10:58:11;;;;;;;7.63;5.10;;;8.80;99.90;;;;;;4977065;28;20501;-76
2022/02/08 11:00:44;;;;;;;8.23;5.23;;;8.80;99.90;;;;;;4977775;28;21027;-75
2022/02/08 11:03:17;;;;;;;6.73;4.90;;;8.90;99.90;;;;;;4971261;28;20485;-76
2022/02/08 11:06:00;;;;;;;6.77;4.90;;;8.90;99.90;;;;;;4975696;28;20488;-76
2022/02/08 11:08:40;;;;;;;5.57;5.03;;;8.80;99.90;;;;;;4975341;28;20536;-76
2022/02/08 11:17:23;;;;;;;8.47;5.10;;;8.70;99.90;;;;;;4974308;28;20486;-74
2022/02/08 11:19:53;;;;;;;6.33;5.40;;;8.80;99.90;;;;;;4979292;28;20493;-75
2022/02/08 11:22:33;;;;;;;11.33;5.23;;;8.90;99.90;;;;;;4977813;28;20470;-76
2022/02/08 11:25:05;;;;;;;6.80;4.80;;;8.90;99.90;;;;;;4963551;28;20453;-76
2022/02/08 11:27:40;;;;;;;7.17;5.20;;;8.80;99.90;;;;;;4961246;28;20501;-75
2022/02/08 11:30:14;;;;;;;6.70;4.90;;;8.70;99.90;;;;;;4973473;28;20479;-76
2022/02/08 11:32:56;;;;;;;8.90;5.53;;;8.80;99.90;;;;;;4976294;28;20472;-76
2022/02/08 11:44:46;;;;;;;8.77;5.60;;;8.90;99.90;;;;;;4974275;28;20571;-76
2022/02/08 11:47:26;;;;;;;6.33;5.17;;;8.90;99.90;;;;;;4953500;28;20487;-75
2022/02/08 11:50:20;;;;;;;7.37;5.30;;;9.00;99.90;;;;;;4956119;28;20498;-76
2022/02/08 11:52:57;;;;;;;8.80;6.03;;;8.90;99.90;;;;;;4990598;28;20472;-81
2022/02/08 11:55:50;;;;;;;7.60;5.90;;;8.80;99.90;;;;;;4968631;28;20480;-81
2022/02/08 11:58:28;;;;;;;10.20;5.60;;;8.90;99.90;;;;;;4982036;28;20501;-80
2022/02/08 12:01:04;;;;;;;10.37;6.60;;;8.90;99.90;;;;;;4969883;28;20596;-76
2022/02/08 12:06:52;;;;;;;9.20;5.40;;;8.90;99.90;;;;;;4973777;28;20484;-75
2022/02/08 12:09:30;;;;;;;6.63;5.07;;;9.00;99.90;;;;;;4980599;28;20487;-75
2022/02/08 12:35:11;;;;;;;7.67;4.73;;;8.90;99.90;;;;;;4962410;28;20521;-76
2022/02/08 12:54:44;;;;;;;7.50;4.33;;;9.00;99.90;;;;;;4982452;28;20469;-76
2022/02/08 12:57:27;;;;;;;7.77;3.70;;;9.00;99.90;;;;;;4977351;28;20497;-75
2022/02/08 13:00:11;;;;;;;4.63;3.93;;;9.00;99.90;;;;;;4967160;28;20539;-75
2022/02/08 13:02:49;;;;;;;4.70;4.20;;;9.00;99.90;;;;;;4975224;28;20457;-75
2022/02/08 14:01:46;;;;;;;3.10;2.67;;;9.10;99.90;;;;;;4972827;28;20469;-76
2022/02/08 14:07:03;;;;;;;2.47;2.27;;;9.10;99.90;;;;;;4975717;28;20502;-75
2022/02/08 14:18:37;;;;;;;2.90;1.80;;;9.10;99.90;;;;;;4965406;28;21069;-76
2022/02/08 14:21:14;;;;;;;1.97;1.87;;;9.10;99.90;;;;;;4978708;28;20466;-77
2022/02/08 14:23:57;;;;;;;3.23;1.80;;;9.10;99.90;;;;;;4978333;28;20464;-76
2022/02/08 14:32:20;;;;;;;3.13;1.30;;;9.20;99.90;;;;;;4967519;28;21014;-76
2022/02/08 14:57:39;;;;;;;1.07;1.03;;;9.10;99.90;;;;;;4968235;28;20870;-79
2022/02/08 15:00:22;;;;;;;1.20;1.00;;;9.10;99.90;;;;;;4972124;28;20497;-80
2022/02/08 15:05:44;;;;;;;0.97;0.90;;;9.10;99.90;;;;;;4976532;28;20476;-76
2022/02/08 15:08:16;;;;;;;2.43;1.07;;;9.00;99.90;;;;;;4989896;28;21016;-77
2022/02/08 15:10:48;;;;;;;1.10;1.00;;;9.00;99.90;;;;;;4975682;28;21034;-78
2022/02/08 15:13:19;;;;;;;1.00;0.90;;;9.10;99.90;;;;;;4979400;28;21002;-78
2022/02/08 15:16:21;;;;;;;1.17;1.00;;;9.00;99.90;;;;;;4974023;28;21070;-77
2022/02/08 15:18:50;;;;;;;0.93;0.90;;;9.00;99.90;;;;;;4972761;28;21364;-78
2022/02/08 15:21:23;;;;;;;1.10;1.00;;;9.00;99.90;;;;;;4963893;28;21032;-78
2022/02/08 15:23:51;;;;;;;1.00;0.90;;;9.00;99.90;;;;;;4977127;28;20992;-77
2022/02/08 15:26:20;;;;;;;0.90;0.90;;;9.00;99.90;;;;;;4969608;28;20505;-76
2022/02/08 15:28:49;;;;;;;1.23;1.13;;;9.00;99.90;;;;;;4977840;28;20487;-77
2022/02/08 15:31:18;;;;;;;1.10;0.90;;;9.00;99.90;;;;;;4959151;28;20490;-76
2022/02/08 15:33:46;;;;;;;1.50;1.10;;;9.10;99.90;;;;;;4982451;28;21097;-75
2022/02/08 15:36:18;;;;;;;1.37;1.27;;;9.00;99.90;;;;;;4979142;28;20607;-78
2022/02/08 15:38:53;;;;;;;1.40;1.30;;;9.00;99.90;;;;;;4979437;28;21072;-78
2022/02/08 15:41:21;;;;;;;1.27;1.10;;;9.00;99.90;;;;;;4976580;28;20478;-77
2022/02/08 15:43:51;;;;;;;1.43;0.90;;;9.00;99.90;;;;;;4970966;28;20905;-77
2022/02/08 15:46:22;;;;;;;1.20;1.10;;;9.00;99.90;;;;;;4984334;28;20463;-77
2022/02/08 15:48:54;;;;;;;1.87;1.20;;;9.00;99.90;;;;;;4981453;28;20498;-76
2022/02/08 15:51:30;;;;;;;1.70;1.10;;;9.00;99.90;;;;;;4977932;28;20462;-78
2022/02/08 15:54:09;;;;;;;1.13;0.90;;;9.00;99.90;;;;;;4980188;28;20468;-78
2022/02/08 16:05:17;;;;;;;1.10;1.00;;;9.00;99.90;;;;;;4988791;28;20445;-84
2022/02/08 16:08:13;;;;;;;2.13;1.30;;;9.00;99.90;;;;;;5008146;28;20804;-83
2022/02/08 16:10:53;;;;;;;1.53;1.37;;;9.10;99.90;;;;;;4981829;28;20568;-89
2022/02/08 16:13:31;;;;;;;1.50;1.40;;;9.00;99.90;;;;;;4984052;28;20469;-85
2022/02/08 16:16:16;;;;;;;1.33;1.27;;;9.10;99.90;;;;;;4986405;28;20485;-81
2022/02/08 16:18:53;;;;;;;1.30;1.20;;;9.10;99.90;;;;;;4988352;28;20532;-82
2022/02/08 16:24:26;;;;;;;1.27;1.17;;;9.10;99.90;;;;;;4989290;28;20462;-84
2022/02/08 16:27:16;;;;;;;2.97;1.30;;;9.20;99.90;;;;;;4974164;28;20491;-87
2022/02/08 16:30:21;;;;;;;1.43;1.30;;;9.20;99.90;;;;;;5004206;28;20479;-83
2022/02/08 16:47:05;;;;;;;2.60;1.60;;;9.00;99.90;;;;;;4971009;28;20617;-78
2022/02/08 16:52:48;;;;;;;2.10;1.80;;;8.90;99.90;;;;;;4961330;28;20476;-79
2022/02/08 16:55:32;;;;;;;3.23;2.40;;;8.90;99.90;;;;;;4981300;28;20470;-78
2022/02/08 16:58:21;;;;;;;5.37;2.63;;;8.80;99.90;;;;;;4958982;28;20489;-78
2022/02/08 17:00:56;;;;;;;4.70;2.60;;;8.80;99.90;;;;;;4975921;28;20581;-78
2022/02/08 17:03:43;;;;;;;4.43;3.20;;;8.80;99.90;;;;;;4977886;28;20565;-78
2022/02/08 17:06:14;;;;;;;5.17;3.50;;;8.80;99.90;;;;;;4977640;28;20492;-78
2022/02/08 17:08:42;;;;;;;6.53;3.00;;;8.70;99.90;;;;;;4977509;28;20542;-77
2022/02/08 17:11:16;;;;;;;6.77;3.47;;;8.70;99.90;;;;;;4955966;28;20461;-78
2022/02/08 17:14:11;;;;;;;6.67;3.70;;;8.80;99.90;;;;;;4975474;28;20477;-75
2022/02/08 17:16:48;;;;;;;5.73;3.57;;;8.70;99.90;;;;;;4967266;28;21086;-77
2022/02/08 17:47:40;;;;;;;456.37;415.63;;;8.60;99.90;;;;;;4955672;28;20491;-79
2022/02/08 17:50:13;;;;;;;233.93;213.63;;;8.70;99.90;;;;;;4973844;28;20481;-77
2022/02/08 17:52:42;;;;;;;11.23;9.20;;;8.70;99.90;;;;;;4978440;28;20485;-85
2022/02/08 17:55:12;;;;;;;3.20;3.00;;;8.60;99.90;;;;;;4971438;28;20472;-78
2022/02/08 17:57:41;;;;;;;2.67;2.03;;;8.70;99.90;;;;;;4981639;28;20600;-79
2022/02/08 18:00:15;;;;;;;3.00;2.40;;;8.70;99.90;;;;;;4973815;28;20491;-80
2022/02/08 18:02:44;;;;;;;2.93;1.93;;;8.70;99.90;;;;;;4985013;28;20471;-81
2022/02/08 18:05:14;;;;;;;3.53;2.30;;;8.70;99.90;;;;;;4990258;28;20470;-81
2022/02/08 18:07:43;;;;;;;1.83;1.60;;;8.70;99.90;;;;;;4985176;28;20572;-79
2022/02/08 18:10:14;;;;;;;1.60;1.50;;;8.70;99.90;;;;;;4977546;28;20484;-79
2022/02/08 18:12:45;;;;;;;1.97;1.80;;;8.70;99.90;;;;;;4974672;28;20468;-80
2022/02/08 18:15:14;;;;;;;3.80;2.10;;;8.70;99.90;;;;;;4970617;28;20497;-79
2022/02/08 18:17:47;;;;;;;1.83;1.73;;;8.70;99.90;;;;;;4967740;28;20483;-79
2022/02/08 18:20:27;;;;;;;2.00;1.90;;;8.70;99.90;;;;;;4980061;28;20607;-80
2022/02/08 18:23:13;;;;;;;2.97;2.00;;;8.60;99.90;;;;;;4980901;28;20504;-81